sensor_id;sensor_type;location;lat;lon;timestamp;pressure;altitude;pressure_sealevel;temperature;humidity
68891;BME280;55932;48.702;8.884;2024-02-21T00:01:42;97120;;;4.5;74.5
68891;BME280;55932;48.702;8.884;2024-02-21T00:06:36;97120;;;4.5;74.5
68891;BME280;55932;48.702;8.884;2024-02-21T00:09:06;97110;;;4.5;74.5
68891;BME280;55932;48.702;8.884;2024-02-21T00:14:01;97110;;;4.5;74.5
68891;BME280;55932;48.702;8.884;2024-02-21T00:16:31;97110;;;4.6;74
68891;BME280;55932;48.702;8.884;2024-02-21T00:19:03;97110;;;4.6;74.5
68891;BME280;55932;48.702;8.884;2024-02-21T00:21:33;97100;;;4.5;74.5
68891;BME280;55932;48.702;8.884;2024-02-21T00:24:17;97100;;;4.5;74.5
68891;BME280;55932;48.702;8.884;2024-02-21T00:26:48;97080;;;4.4;74.5
68891;BME280;55932;48.702;8.884;2024-02-21T00:31:36;97080;;;4.6;74
68891;BME280;55932;48.702;8.884;2024-02-21T00:34:06;97090;;;4.6;74
68891;BME280;55932;48.702;8.884;2024-02-21T00:36:37;97080;;;4.6;74
68891;BME280;55932;48.702;8.884;2024-02-21T00:39:08;97090;;;4.6;74
68891;BME280;55932;48.702;8.884;2024-02-21T00:41:39;97080;;;4.5;74.5
68891;BME280;55932;48.702;8.884;2024-02-21T00:44:10;97080;;;4.5;75
68891;BME280;55932;48.702;8.884;2024-02-21T00:46:48;97070;;;4.8;74
68891;BME280;55932;48.702;8.884;2024-02-21T00:49:12;97070;;;4.7;74
68891;BME280;55932;48.702;8.884;2024-02-21T00:51:49;97070;;;4.7;74.5
68891;BME280;55932;48.702;8.884;2024-02-21T00:59:08;97060;;;4.9;74
68891;BME280;55932;48.702;8.884;2024-02-21T01:01:38;97060;;;4.9;74
68891;BME280;55932;48.702;8.884;2024-02-21T01:04:09;97050;;;4.9;74
68891;BME280;55932;48.702;8.884;2024-02-21T01:14:12;97040;;;4.9;74
68891;BME280;55932;48.702;8.884;2024-02-21T01:19:39;97030;;;4.8;74
68891;BME280;55932;48.702;8.884;2024-02-21T01:21:56;97030;;;4.8;74.5
68891;BME280;55932;48.702;8.884;2024-02-21T01:26:57;97010;;;4.7;74.5
68891;BME280;55932;48.702;8.884;2024-02-21T01:29:21;97020;;;4.7;74.5
68891;BME280;55932;48.702;8.884;2024-02-21T01:31:52;97010;;;4.6;74.5
68891;BME280;55932;48.702;8.884;2024-02-21T01:34:23;97010;;;4.6;74.5
68891;BME280;55932;48.702;8.884;2024-02-21T01:36:54;97010;;;4.6;74.5
68891;BME280;55932;48.702;8.884;2024-02-21T01:39:25;97010;;;4.6;74.5
68891;BME280;55932;48.702;8.884;2024-02-21T01:42:03;97000;;;4.6;74.5
68891;BME280;55932;48.702;8.884;2024-02-21T01:52:14;96980;;;4.5;74.5
68891;BME280;55932;48.702;8.884;2024-02-21T01:54:37;96980;;;4.5;74.5
68891;BME280;55932;48.702;8.884;2024-02-21T01:59:31;96970;;;4.5;74.5
68891;BME280;55932;48.702;8.884;2024-02-21T02:02:02;96970;;;4.5;74.5
68891;BME280;55932;48.702;8.884;2024-02-21T02:04:33;96960;;;4.5;74.5
68891;BME280;55932;48.702;8.884;2024-02-21T02:07:10;96960;;;4.5;74.5
68891;BME280;55932;48.702;8.884;2024-02-21T02:09:41;96950;;;4.5;74.5
68891;BME280;55932;48.702;8.884;2024-02-21T02:14:37;96940;;;4.5;74.5
68891;BME280;55932;48.702;8.884;2024-02-21T02:17:07;96940;;;4.6;74.5
68891;BME280;55932;48.702;8.884;2024-02-21T02:19:45;96940;;;4.6;74.5
68891;BME280;55932;48.702;8.884;2024-02-21T02:22:16;96940;;;4.6;74.5
68891;BME280;55932;48.702;8.884;2024-02-21T02:24:38;96930;;;4.7;74.5
68891;BME280;55932;48.702;8.884;2024-02-21T02:27:10;96940;;;4.7;74.5
68891;BME280;55932;48.702;8.884;2024-02-21T02:29:40;96930;;;4.8;74.5
68891;BME280;55932;48.702;8.884;2024-02-21T02:32:12;96920;;;4.8;74.5
68891;BME280;55932;48.702;8.884;2024-02-21T02:34:42;96920;;;4.8;74.5
68891;BME280;55932;48.702;8.884;2024-02-21T02:37:21;96920;;;4.8;74.5
68891;BME280;55932;48.702;8.884;2024-02-21T02:39:44;96900;;;4.8;74.5
68891;BME280;55932;48.702;8.884;2024-02-21T02:42:15;96900;;;4.8;74.5
68891;BME280;55932;48.702;8.884;2024-02-21T02:44:46;96910;;;4.8;74.5
68891;BME280;55932;48.702;8.884;2024-02-21T02:47:17;96910;;;4.8;74.5
68891;BME280;55932;48.702;8.884;2024-02-21T02:49:48;96910;;;4.8;74.5
68891;BME280;55932;48.702;8.884;2024-02-21T02:52:19;96900;;;4.8;74.5
68891;BME280;55932;48.702;8.884;2024-02-21T02:54:57;96890;;;4.8;74.5
68891;BME280;55932;48.702;8.884;2024-02-21T02:59:53;96880;;;4.8;74.5
68891;BME280;55932;48.702;8.884;2024-02-21T03:02:23;96890;;;4.8;74.5
68891;BME280;55932;48.702;8.884;2024-02-21T03:04:54;96890;;;4.8;74.5
68891;BME280;55932;48.702;8.884;2024-02-21T03:07:30;96890;;;4.8;74.5
68891;BME280;55932;48.702;8.884;2024-02-21T03:09:56;96890;;;4.8;74.5
68891;BME280;55932;48.702;8.884;2024-02-21T03:12:27;96870;;;4.8;74.5
68891;BME280;55932;48.702;8.884;2024-02-21T03:14:58;96870;;;4.9;74.5
68891;BME280;55932;48.702;8.884;2024-02-21T03:17:31;96860;;;4.9;74.5
68891;BME280;55932;48.702;8.884;2024-02-21T03:19:59;96870;;;4.9;74.5
68891;BME280;55932;48.702;8.884;2024-02-21T03:22:37;96860;;;4.9;74.5
68891;BME280;55932;48.702;8.884;2024-02-21T03:30:23;96840;;;4.9;74.5
68891;BME280;55932;48.702;8.884;2024-02-21T03:32:40;96840;;;4.9;74.5
68891;BME280;55932;48.702;8.884;2024-02-21T03:37:34;96840;;;4.9;74.5
68891;BME280;55932;48.702;8.884;2024-02-21T03:40:07;96850;;;4.9;74.5
68891;BME280;55932;48.702;8.884;2024-02-21T03:42:37;96850;;;4.8;74.5
68891;BME280;55932;48.702;8.884;2024-02-21T03:47:43;96840;;;4.8;74.5
68891;BME280;55932;48.702;8.884;2024-02-21T03:50:13;96850;;;4.7;74.5
68891;BME280;55932;48.702;8.884;2024-02-21T03:52:51;96840;;;4.7;74.5
68891;BME280;55932;48.702;8.884;2024-02-21T03:55:08;96840;;;4.6;75
68891;BME280;55932;48.702;8.884;2024-02-21T03:57:38;96830;;;4.5;75
68891;BME280;55932;48.702;8.884;2024-02-21T04:00:10;96830;;;4.5;75
68891;BME280;55932;48.702;8.884;2024-02-21T04:02:34;96830;;;4.4;75
68891;BME280;55932;48.702;8.884;2024-02-21T04:05:08;96820;;;4.3;75
68891;BME280;55932;48.702;8.884;2024-02-21T04:10:06;96830;;;4.3;75
68891;BME280;55932;48.702;8.884;2024-02-21T04:12:37;96820;;;4.4;75
68891;BME280;55932;48.702;8.884;2024-02-21T04:15:08;96810;;;4.4;75
68891;BME280;55932;48.702;8.884;2024-02-21T04:17:38;96810;;;4.3;75
68891;BME280;55932;48.702;8.884;2024-02-21T04:20:13;96800;;;4.3;75
68891;BME280;55932;48.702;8.884;2024-02-21T04:25:23;96810;;;4.3;75
68891;BME280;55932;48.702;8.884;2024-02-21T04:27:49;96820;;;4.3;75
68891;BME280;55932;48.702;8.884;2024-02-21T04:30:18;96810;;;4.4;74.5
68891;BME280;55932;48.702;8.884;2024-02-21T04:32:50;96800;;;4.4;75
68891;BME280;55932;48.702;8.884;2024-02-21T04:35:27;96810;;;4.3;75
68891;BME280;55932;48.702;8.884;2024-02-21T04:38:04;96800;;;4.3;75
68891;BME280;55932;48.702;8.884;2024-02-21T04:40:34;96820;;;4.3;75
68891;BME280;55932;48.702;8.884;2024-02-21T04:42:58;96820;;;4.2;75
68891;BME280;55932;48.702;8.884;2024-02-21T04:45:28;96820;;;4.2;75
68891;BME280;55932;48.702;8.884;2024-02-21T04:47:52;96820;;;4.2;75
68891;BME280;55932;48.702;8.884;2024-02-21T04:50:24;96810;;;4.2;75
68891;BME280;55932;48.702;8.884;2024-02-21T04:55:18;96800;;;4.1;75
68891;BME280;55932;48.702;8.884;2024-02-21T05:02:51;96810;;;3.7;75
68891;BME280;55932;48.702;8.884;2024-02-21T05:05:21;96810;;;3.8;75
68891;BME280;55932;48.702;8.884;2024-02-21T05:10:23;96810;;;3.7;75
68891;BME280;55932;48.702;8.884;2024-02-21T05:12:53;96790;;;3.7;75
68891;BME280;55932;48.702;8.884;2024-02-21T05:15:24;96790;;;3.8;75
68891;BME280;55932;48.702;8.884;2024-02-21T05:18:02;96780;;;3.9;75
68891;BME280;55932;48.702;8.884;2024-02-21T05:20:32;96780;;;3.9;75
68891;BME280;55932;48.702;8.884;2024-02-21T05:23:04;96770;;;3.8;75
68891;BME280;55932;48.702;8.884;2024-02-21T05:25:34;96770;;;3.8;75
68891;BME280;55932;48.702;8.884;2024-02-21T05:28:05;96770;;;3.8;75
68891;BME280;55932;48.702;8.884;2024-02-21T05:30:42;96760;;;3.7;75
68891;BME280;55932;48.702;8.884;2024-02-21T05:35:38;96750;;;3.5;75
68891;BME280;55932;48.702;8.884;2024-02-21T05:40:46;96740;;;3.4;75
68891;BME280;55932;48.702;8.884;2024-02-21T05:43:20;96740;;;3.5;75
68891;BME280;55932;48.702;8.884;2024-02-21T05:48:10;96750;;;3.7;75
68891;BME280;55932;48.702;8.884;2024-02-21T05:50:42;96740;;;3.7;75
68891;BME280;55932;48.702;8.884;2024-02-21T05:53:12;96740;;;3.6;75
68891;BME280;55932;48.702;8.884;2024-02-21T05:55:43;96730;;;3.6;75
68891;BME280;55932;48.702;8.884;2024-02-21T05:58:21;96740;;;3.6;75
68891;BME280;55932;48.702;8.884;2024-02-21T06:03:16;96740;;;3.6;75
68891;BME280;55932;48.702;8.884;2024-02-21T06:08:24;96740;;;3.6;75
68891;BME280;55932;48.702;8.884;2024-02-21T06:10:55;96740;;;3.7;75
68891;BME280;55932;48.702;8.884;2024-02-21T06:15:48;96730;;;3.5;75
68891;BME280;55932;48.702;8.884;2024-02-21T06:18:19;96740;;;3.6;75
68891;BME280;55932;48.702;8.884;2024-02-21T06:20:50;96730;;;3.6;75
68891;BME280;55932;48.702;8.884;2024-02-21T06:23:21;96740;;;3.6;75
68891;BME280;55932;48.702;8.884;2024-02-21T06:25:58;96740;;;3.6;75
68891;BME280;55932;48.702;8.884;2024-02-21T06:28:30;96750;;;3.6;75
68891;BME280;55932;48.702;8.884;2024-02-21T06:33:25;96740;;;3.5;75
68891;BME280;55932;48.702;8.884;2024-02-21T06:35:56;96750;;;3.5;75
68891;BME280;55932;48.702;8.884;2024-02-21T06:38:34;96750;;;3.5;75
68891;BME280;55932;48.702;8.884;2024-02-21T06:41:00;96750;;;3.6;75
68891;BME280;55932;48.702;8.884;2024-02-21T06:43:29;96740;;;3.6;75
68891;BME280;55932;48.702;8.884;2024-02-21T06:46:00;96740;;;3.7;75
68891;BME280;55932;48.702;8.884;2024-02-21T06:48:31;96740;;;3.8;75
68891;BME280;55932;48.702;8.884;2024-02-21T06:51:04;96730;;;3.9;75
68891;BME280;55932;48.702;8.884;2024-02-21T06:53:39;96730;;;4;75
68891;BME280;55932;48.702;8.884;2024-02-21T06:56:10;96730;;;4.1;75
68891;BME280;55932;48.702;8.884;2024-02-21T07:03:43;96720;;;4.3;75
68891;BME280;55932;48.702;8.884;2024-02-21T07:06:13;96720;;;4.3;75
68891;BME280;55932;48.702;8.884;2024-02-21T07:08:37;96710;;;4.4;75
68891;BME280;55932;48.702;8.884;2024-02-21T07:11:08;96710;;;4.5;75
68891;BME280;55932;48.702;8.884;2024-02-21T07:13:40;96710;;;4.6;75
68891;BME280;55932;48.702;8.884;2024-02-21T07:16:10;96720;;;4.7;74.5
68891;BME280;55932;48.702;8.884;2024-02-21T07:18:41;96710;;;4.8;74.5
68891;BME280;55932;48.702;8.884;2024-02-21T07:21:12;96710;;;4.9;75
68891;BME280;55932;48.702;8.884;2024-02-21T07:23:50;96710;;;4.9;75
68891;BME280;55932;48.702;8.884;2024-02-21T07:28:45;96690;;;5.3;74.5
68891;BME280;55932;48.702;8.884;2024-02-21T07:31:16;96690;;;5.4;74
68891;BME280;55932;48.702;8.884;2024-02-21T07:33:47;96680;;;5.6;74
68891;BME280;55932;48.702;8.884;2024-02-21T07:36:28;96680;;;5.8;74
68891;BME280;55932;48.702;8.884;2024-02-21T07:38:49;96680;;;6;74
68891;BME280;55932;48.702;8.884;2024-02-21T07:41:20;96670;;;6;74
68891;BME280;55932;48.702;8.884;2024-02-21T07:43:52;96670;;;6;74
68891;BME280;55932;48.702;8.884;2024-02-21T07:46:22;96670;;;6.2;74
68891;BME280;55932;48.702;8.884;2024-02-21T07:48:53;96670;;;6.3;74
68891;BME280;55932;48.702;8.884;2024-02-21T07:51:30;96670;;;6.5;73.5
68891;BME280;55932;48.702;8.884;2024-02-21T07:56:27;96660;;;6.5;74
68891;BME280;55932;48.702;8.884;2024-02-21T07:58:57;96660;;;6.4;74
68891;BME280;55932;48.702;8.884;2024-02-21T08:01:28;96660;;;6.3;74.5
68891;BME280;55932;48.702;8.884;2024-02-21T08:03:59;96670;;;6.4;74.5
68891;BME280;55932;48.702;8.884;2024-02-21T08:06:30;96670;;;6.6;74.5
68891;BME280;55932;48.702;8.884;2024-02-21T08:09:01;96670;;;6.7;74.5
68891;BME280;55932;48.702;8.884;2024-02-21T08:11:31;96670;;;6.8;74.5
68891;BME280;55932;48.702;8.884;2024-02-21T08:14:02;96670;;;7.2;73.5
68891;BME280;55932;48.702;8.884;2024-02-21T08:16:33;96670;;;7.3;73.5
68891;BME280;55932;48.702;8.884;2024-02-21T08:19:05;96680;;;7.5;73
68891;BME280;55932;48.702;8.884;2024-02-21T08:21:42;96670;;;7.4;74
68891;BME280;55932;48.702;8.884;2024-02-21T08:24:19;96660;;;7.6;73.5
68891;BME280;55932;48.702;8.884;2024-02-21T08:26:39;96650;;;7.9;73.5
68891;BME280;55932;48.702;8.884;2024-02-21T08:29:07;96640;;;8.2;73
68891;BME280;55932;48.702;8.884;2024-02-21T08:34:02;96640;;;8.1;73.5
68891;BME280;55932;48.702;8.884;2024-02-21T08:36:34;96640;;;8.2;73.5
68891;BME280;55932;48.702;8.884;2024-02-21T08:39:03;96620;;;8;73.5
68891;BME280;55932;48.702;8.884;2024-02-21T08:41:34;96630;;;8.1;73.5
68891;BME280;55932;48.702;8.884;2024-02-21T08:49:07;96620;;;7.8;74
68891;BME280;55932;48.702;8.884;2024-02-21T08:51:37;96620;;;7.8;74
68891;BME280;55932;48.702;8.884;2024-02-21T08:54:15;96620;;;7.8;74
68891;BME280;55932;48.702;8.884;2024-02-21T08:56:50;96610;;;7.9;74
68891;BME280;55932;48.702;8.884;2024-02-21T08:59:17;96610;;;8.1;73.5
68891;BME280;55932;48.702;8.884;2024-02-21T09:01:48;96600;;;8.3;73.5
68891;BME280;55932;48.702;8.884;2024-02-21T09:04:18;96600;;;8.4;73.5
68891;BME280;55932;48.702;8.884;2024-02-21T09:06:49;96600;;;8.7;73.5
68891;BME280;55932;48.702;8.884;2024-02-21T09:09:13;96600;;;9.1;73
68891;BME280;55932;48.702;8.884;2024-02-21T09:11:44;96600;;;9.2;73
68891;BME280;55932;48.702;8.884;2024-02-21T09:19:16;96590;;;9.2;73
68891;BME280;55932;48.702;8.884;2024-02-21T09:21:47;96590;;;9.1;73
68891;BME280;55932;48.702;8.884;2024-02-21T09:24:20;96590;;;9.1;74
68891;BME280;55932;48.702;8.884;2024-02-21T09:29:25;96590;;;10;74.5
68891;BME280;55932;48.702;8.884;2024-02-21T09:31:56;96590;;;10.6;74.5
68891;BME280;55932;48.702;8.884;2024-02-21T09:36:51;96570;;;11.2;73.5
68891;BME280;55932;48.702;8.884;2024-02-21T09:46:56;96560;;;12;73.5
68891;BME280;55932;48.702;8.884;2024-02-21T09:49:29;96560;;;11.9;74
68891;BME280;55932;48.702;8.884;2024-02-21T09:51:55;96560;;;12.1;74
68891;BME280;55932;48.702;8.884;2024-02-21T09:54:27;96550;;;12.5;73.5
68891;BME280;55932;48.702;8.884;2024-02-21T09:56:57;96550;;;12.7;74
68891;BME280;55932;48.702;8.884;2024-02-21T10:02:11;96550;;;12.2;73
68891;BME280;55932;48.702;8.884;2024-02-21T10:04:42;96550;;;12.3;73.5
68891;BME280;55932;48.702;8.884;2024-02-21T10:07:12;96550;;;12.2;74
68891;BME280;55932;48.702;8.884;2024-02-21T10:09:42;96540;;;12.1;73.5
68891;BME280;55932;48.702;8.884;2024-02-21T10:14:38;96540;;;11.9;73.5
68891;BME280;55932;48.702;8.884;2024-02-21T10:19:46;96530;;;12;74
68891;BME280;55932;48.702;8.884;2024-02-21T10:22:23;96520;;;12.1;73.5
68891;BME280;55932;48.702;8.884;2024-02-21T10:24:47;96520;;;11.9;73.5
68891;BME280;55932;48.702;8.884;2024-02-21T10:27:19;96520;;;12.2;74
68891;BME280;55932;48.702;8.884;2024-02-21T10:29:49;96530;;;12.6;74
68891;BME280;55932;48.702;8.884;2024-02-21T10:32:18;96520;;;12.6;74
68891;BME280;55932;48.702;8.884;2024-02-21T10:34:48;96510;;;12.7;73.5
68891;BME280;55932;48.702;8.884;2024-02-21T10:37:17;96510;;;12.9;73.5
68891;BME280;55932;48.702;8.884;2024-02-21T10:39:47;96500;;;12.9;73.5
68891;BME280;55932;48.702;8.884;2024-02-21T10:42:17;96500;;;13;73.5
68891;BME280;55932;48.702;8.884;2024-02-21T10:47:13;96490;;;12.6;73.5
68891;BME280;55932;48.702;8.884;2024-02-21T10:49:44;96490;;;12.6;73.5
68891;BME280;55932;48.702;8.884;2024-02-21T10:52:27;96480;;;12.7;73.5
68891;BME280;55932;48.702;8.884;2024-02-21T10:54:53;96480;;;13.1;72.5
68891;BME280;55932;48.702;8.884;2024-02-21T10:57:17;96470;;;12.9;72
68891;BME280;55932;48.702;8.884;2024-02-21T10:59:48;96470;;;12.7;72.5
68891;BME280;55932;48.702;8.884;2024-02-21T11:02:12;96470;;;12.8;73
68891;BME280;55932;48.702;8.884;2024-02-21T11:04:43;96460;;;12.8;73
68891;BME280;55932;48.702;8.884;2024-02-21T11:12:19;96440;;;13.3;72.5
68891;BME280;55932;48.702;8.884;2024-02-21T11:14:46;96440;;;13;72.5
68891;BME280;55932;48.702;8.884;2024-02-21T11:19:53;96440;;;12.8;72.5
68891;BME280;55932;48.702;8.884;2024-02-21T11:22:24;96430;;;12.7;72
68891;BME280;55932;48.702;8.884;2024-02-21T11:25:05;96420;;;12.7;72.5
68891;BME280;55932;48.702;8.884;2024-02-21T11:27:26;96420;;;12.8;72.5
68891;BME280;55932;48.702;8.884;2024-02-21T11:29:57;96420;;;12.9;72
68891;BME280;55932;48.702;8.884;2024-02-21T11:32:28;96400;;;12.9;72
68891;BME280;55932;48.702;8.884;2024-02-21T11:35:06;96400;;;13;72
68891;BME280;55932;48.702;8.884;2024-02-21T11:37:37;96390;;;12.9;72
68891;BME280;55932;48.702;8.884;2024-02-21T11:40:13;96390;;;12.9;72.5
68891;BME280;55932;48.702;8.884;2024-02-21T11:42:50;96380;;;12.9;72.5
68891;BME280;55932;48.702;8.884;2024-02-21T11:45:07;96390;;;13.1;73
68891;BME280;55932;48.702;8.884;2024-02-21T11:50:01;96380;;;13.8;73
68891;BME280;55932;48.702;8.884;2024-02-21T11:52:32;96370;;;14.1;72
68891;BME280;55932;48.702;8.884;2024-02-21T11:55:03;96370;;;14.5;71.5
68891;BME280;55932;48.702;8.884;2024-02-21T11:57:35;96360;;;14.9;71
68891;BME280;55932;48.702;8.884;2024-02-21T12:02:43;96350;;;14.6;72
68891;BME280;55932;48.702;8.884;2024-02-21T12:07:50;96340;;;14.5;72.5
68891;BME280;55932;48.702;8.884;2024-02-21T12:10:14;96330;;;14.5;72.5
68891;BME280;55932;48.702;8.884;2024-02-21T12:15:08;96320;;;14.5;72.5
68891;BME280;55932;48.702;8.884;2024-02-21T12:17:39;96320;;;14.6;72.5
68891;BME280;55932;48.702;8.884;2024-02-21T12:20:10;96310;;;14.6;72
68891;BME280;55932;48.702;8.884;2024-02-21T12:22:35;96300;;;14.4;72.5
68891;BME280;55932;48.702;8.884;2024-02-21T12:32:37;96280;;;13.9;72
68891;BME280;55932;48.702;8.884;2024-02-21T12:35:07;96280;;;13.7;72.5
68891;BME280;55932;48.702;8.884;2024-02-21T12:37:38;96270;;;13.7;72.5
68891;BME280;55932;48.702;8.884;2024-02-21T12:40:09;96270;;;13.9;72
68891;BME280;55932;48.702;8.884;2024-02-21T12:45:24;96270;;;14;72
68891;BME280;55932;48.702;8.884;2024-02-21T12:47:53;96260;;;14;72
68891;BME280;55932;48.702;8.884;2024-02-21T12:50:18;96250;;;14;72
68891;BME280;55932;48.702;8.884;2024-02-21T12:52:49;96240;;;14;72
68891;BME280;55932;48.702;8.884;2024-02-21T12:55:26;96240;;;14.2;71.5
68891;BME280;55932;48.702;8.884;2024-02-21T12:58:02;96230;;;14.1;72
68891;BME280;55932;48.702;8.884;2024-02-21T13:05:30;96230;;;13.6;72
68891;BME280;55932;48.702;8.884;2024-02-21T13:08:00;96220;;;13.6;72
68891;BME280;55932;48.702;8.884;2024-02-21T13:10:24;96220;;;13.7;72
68891;BME280;55932;48.702;8.884;2024-02-21T13:12:57;96210;;;13.7;72
68891;BME280;55932;48.702;8.884;2024-02-21T13:15:25;96210;;;13.6;72
68891;BME280;55932;48.702;8.884;2024-02-21T13:17:49;96200;;;13.5;72
68891;BME280;55932;48.702;8.884;2024-02-21T13:25:21;96190;;;13.5;72.5
68891;BME280;55932;48.702;8.884;2024-02-21T13:27:55;96180;;;13.4;72.5
68891;BME280;55932;48.702;8.884;2024-02-21T13:30:23;96170;;;13.5;72.5
68891;BME280;55932;48.702;8.884;2024-02-21T13:32:54;96160;;;13.4;72.5
68891;BME280;55932;48.702;8.884;2024-02-21T13:35:25;96160;;;13.5;72
68891;BME280;55932;48.702;8.884;2024-02-21T13:37:55;96160;;;13.4;72.5
68891;BME280;55932;48.702;8.884;2024-02-21T13:43:03;96140;;;13.4;72.5
68891;BME280;55932;48.702;8.884;2024-02-21T13:45:33;96130;;;13.4;72
68891;BME280;55932;48.702;8.884;2024-02-21T13:48:05;96130;;;13.4;72
68891;BME280;55932;48.702;8.884;2024-02-21T13:50:36;96130;;;13.5;72.5
68891;BME280;55932;48.702;8.884;2024-02-21T13:53:13;96130;;;13.3;72.5
68891;BME280;55932;48.702;8.884;2024-02-21T13:58:09;96120;;;13.2;72.5
68891;BME280;55932;48.702;8.884;2024-02-21T14:00:46;96120;;;13.2;72.5
68891;BME280;55932;48.702;8.884;2024-02-21T14:05:46;96120;;;13;72.5
68891;BME280;55932;48.702;8.884;2024-02-21T14:08:16;96120;;;12.9;72.5
68891;BME280;55932;48.702;8.884;2024-02-21T14:10:41;96110;;;12.7;73
68891;BME280;55932;48.702;8.884;2024-02-21T14:13:11;96110;;;12.6;73
68891;BME280;55932;48.702;8.884;2024-02-21T14:15:43;96120;;;12.5;73
68891;BME280;55932;48.702;8.884;2024-02-21T14:20:50;96120;;;12.4;73
68891;BME280;55932;48.702;8.884;2024-02-21T14:26:03;96100;;;12.4;73
68891;BME280;55932;48.702;8.884;2024-02-21T14:28:27;96100;;;12.4;73
68891;BME280;55932;48.702;8.884;2024-02-21T14:33:15;96090;;;12.3;73
68891;BME280;55932;48.702;8.884;2024-02-21T14:35:45;96080;;;12.2;73
68891;BME280;55932;48.702;8.884;2024-02-21T14:38:17;96090;;;12.2;73
68891;BME280;55932;48.702;8.884;2024-02-21T14:40:47;96090;;;12.1;73
68891;BME280;55932;48.702;8.884;2024-02-21T14:45:43;96070;;;12;73
68891;BME280;55932;48.702;8.884;2024-02-21T14:48:13;96070;;;11.9;73.5
68891;BME280;55932;48.702;8.884;2024-02-21T14:55:46;96070;;;11.7;73.5
68891;BME280;55932;48.702;8.884;2024-02-21T14:58:17;96080;;;11.7;73
68891;BME280;55932;48.702;8.884;2024-02-21T15:00:47;96070;;;11.7;73
68891;BME280;55932;48.702;8.884;2024-02-21T15:03:18;96060;;;11.7;73
68891;BME280;55932;48.702;8.884;2024-02-21T15:05:49;96060;;;11.7;73
68891;BME280;55932;48.702;8.884;2024-02-21T15:08:20;96040;;;11.7;73
68891;BME280;55932;48.702;8.884;2024-02-21T15:10:50;96030;;;11.8;73
68891;BME280;55932;48.702;8.884;2024-02-21T15:15:52;96010;;;11.9;72.5
68891;BME280;55932;48.702;8.884;2024-02-21T15:28:51;95990;;;11.4;73.5
68891;BME280;55932;48.702;8.884;2024-02-21T15:31:08;95980;;;11.3;73.5
68891;BME280;55932;48.702;8.884;2024-02-21T15:36:03;95980;;;11.2;73
68891;BME280;55932;48.702;8.884;2024-02-21T15:38:33;95970;;;11.1;73
68891;BME280;55932;48.702;8.884;2024-02-21T15:41:04;95970;;;11.1;73
68891;BME280;55932;48.702;8.884;2024-02-21T15:43:28;95970;;;11.1;73
68891;BME280;55932;48.702;8.884;2024-02-21T15:51:01;95960;;;10.9;73.5
68891;BME280;55932;48.702;8.884;2024-02-21T15:53:31;95960;;;10.9;73.5
68891;BME280;55932;48.702;8.884;2024-02-21T15:56:02;95960;;;10.8;73.5
68891;BME280;55932;48.702;8.884;2024-02-21T15:58:33;95960;;;10.8;73.5
68891;BME280;55932;48.702;8.884;2024-02-21T16:03:40;95950;;;10.8;73
68891;BME280;55932;48.702;8.884;2024-02-21T16:06:11;95950;;;10.7;73
68891;BME280;55932;48.702;8.884;2024-02-21T16:08:43;95950;;;10.7;73
68891;BME280;55932;48.702;8.884;2024-02-21T16:11:14;95940;;;10.6;73
68891;BME280;55932;48.702;8.884;2024-02-21T16:18:39;95930;;;10.3;73.5
68891;BME280;55932;48.702;8.884;2024-02-21T16:21:10;95920;;;10.3;73.5
68891;BME280;55932;48.702;8.884;2024-02-21T16:23:40;95910;;;10.2;73.5
68891;BME280;55932;48.702;8.884;2024-02-21T16:26:11;95900;;;10.2;73.5
68891;BME280;55932;48.702;8.884;2024-02-21T16:28:43;95900;;;10.2;73.5
68891;BME280;55932;48.702;8.884;2024-02-21T16:31:13;95890;;;10.2;73.5
68891;BME280;55932;48.702;8.884;2024-02-21T16:33:44;95880;;;10.1;73.5
68891;BME280;55932;48.702;8.884;2024-02-21T16:36:22;95880;;;10;73.5
68891;BME280;55932;48.702;8.884;2024-02-21T16:38:45;95890;;;10;73.5
68891;BME280;55932;48.702;8.884;2024-02-21T16:41:16;95880;;;9.9;73.5
68891;BME280;55932;48.702;8.884;2024-02-21T16:48:48;95870;;;9.8;73.5
68891;BME280;55932;48.702;8.884;2024-02-21T16:51:19;95870;;;9.9;73.5
68891;BME280;55932;48.702;8.884;2024-02-21T16:53:50;95860;;;9.8;73.5
68891;BME280;55932;48.702;8.884;2024-02-21T16:56:27;95880;;;9.8;73
68891;BME280;55932;48.702;8.884;2024-02-21T16:59:01;95870;;;9.7;73.5
68891;BME280;55932;48.702;8.884;2024-02-21T17:01:34;95870;;;9.6;73.5
68891;BME280;55932;48.702;8.884;2024-02-21T17:04:00;95870;;;9.6;73.5
68891;BME280;55932;48.702;8.884;2024-02-21T17:06:31;95860;;;9.6;73.5
68891;BME280;55932;48.702;8.884;2024-02-21T17:09:03;95860;;;9.5;73.5
68891;BME280;55932;48.702;8.884;2024-02-21T17:11:34;95870;;;9.5;73.5
68891;BME280;55932;48.702;8.884;2024-02-21T17:14:12;95860;;;9.5;73.5
68891;BME280;55932;48.702;8.884;2024-02-21T17:16:42;95860;;;9.5;73.5
68891;BME280;55932;48.702;8.884;2024-02-21T17:21:37;95850;;;9.5;73
68891;BME280;55932;48.702;8.884;2024-02-21T17:26:51;95830;;;9.5;73.5
68891;BME280;55932;48.702;8.884;2024-02-21T17:29:14;95830;;;9.4;73.5
68891;BME280;55932;48.702;8.884;2024-02-21T17:31:44;95830;;;9.4;73.5
68891;BME280;55932;48.702;8.884;2024-02-21T17:34:14;95850;;;9.4;73
68891;BME280;55932;48.702;8.884;2024-02-21T17:36:45;95840;;;9.4;73
68891;BME280;55932;48.702;8.884;2024-02-21T17:39:15;95830;;;9.4;73
68891;BME280;55932;48.702;8.884;2024-02-21T17:41:52;95830;;;9.3;73.5
68891;BME280;55932;48.702;8.884;2024-02-21T17:44:28;95830;;;9.3;73
68891;BME280;55932;48.702;8.884;2024-02-21T17:49:09;95830;;;9.2;73.5
68891;BME280;55932;48.702;8.884;2024-02-21T17:51:40;95820;;;9.2;73.5
68891;BME280;55932;48.702;8.884;2024-02-21T17:54:11;95820;;;9.3;73
68891;BME280;55932;48.702;8.884;2024-02-21T17:56:34;95830;;;9.3;73
68891;BME280;55932;48.702;8.884;2024-02-21T18:11:39;95810;;;9.1;73.5
68891;BME280;55932;48.702;8.884;2024-02-21T18:14:10;95800;;;9.1;73.5
68891;BME280;55932;48.702;8.884;2024-02-21T18:16:41;95800;;;9;73.5
68891;BME280;55932;48.702;8.884;2024-02-21T18:21:55;95790;;;9;73.5
68891;BME280;55932;48.702;8.884;2024-02-21T18:24:32;95790;;;9.1;73
68891;BME280;55932;48.702;8.884;2024-02-21T18:29:27;95800;;;9;73.5
68891;BME280;55932;48.702;8.884;2024-02-21T18:31:57;95800;;;8.9;73.5
68891;BME280;55932;48.702;8.884;2024-02-21T18:34:26;95790;;;8.9;73.5
68891;BME280;55932;48.702;8.884;2024-02-21T18:37:03;95780;;;8.9;73.5
68891;BME280;55932;48.702;8.884;2024-02-21T18:39:38;95770;;;8.9;73.5
68891;BME280;55932;48.702;8.884;2024-02-21T18:41:57;95770;;;8.9;73.5
68891;BME280;55932;48.702;8.884;2024-02-21T18:44:20;95760;;;8.9;73